Terminal Aerodrome Forecast
Issued by NWS

Home | Current Version | Previous Version | Text Only | Print | Product List | Glossary On
Versions: 1 2 3 4 5 6 7 8 9 10 11 12
927
FTUS41 KALY 010538
TAFPSF
TAF
KPSF 010538Z 0106/0206 00000KT P6SM BKN120 BKN250
     FM010900 VRB03KT P6SM SCT025 BKN050 OVC080
     FM011500 13004KT 5SM -RA BR OVC025
     FM011900 15006KT 5SM -RA BR OVC015
     FM020000 12005KT 4SM -RADZ BR OVC007=

USA.gov is the U.S. government's official web portal to all federal, state and local government web resources and services.